Terminal Aerodrome Forecast
Issued by NWS

Current Version | Previous Version | Text Only | Print | Product List | Glossary Off
Versions: 1 2 3 4 5 6 7 8 9 10 11 12 13 14 15 16 17 18 19 20 21 22 23 24 25

924
FTUS41 KRLX 211138
TAFCKB
TAF
KCKB 211138Z 2112/2212 12004KT 6SM BR OVC025
     FM211900 VRB03KT 4SM SHRA BR BKN020
     FM220000 31005KT 4SM SHRA BR OVC015
     FM220300 34004KT 4SM -RADZ BR OVC005=

USA.gov is the U.S. government's official web portal to all federal, state and local government web resources and services.